createdAt,value
2022-07-27T00:01:19.485Z,96212.56
2022-07-27T00:03:49.554Z,96203.56
2022-07-27T00:06:18.065Z,96203.56
2022-07-27T00:08:46.539Z,96208.50
2022-07-27T00:11:15.320Z,96207.59
2022-07-27T00:13:45.177Z,96202.66
2022-07-27T00:16:14.003Z,96208.75
2022-07-27T00:18:42.593Z,96199.75
2022-07-27T00:21:12.951Z,96196.34
2022-07-27T00:23:41.922Z,96194.59
2022-07-27T00:26:10.428Z,96195.66
2022-07-27T00:28:38.849Z,96191.34
2022-07-27T00:31:07.492Z,96192.28
2022-07-27T00:33:36.004Z,96185.03
2022-07-27T00:36:04.755Z,96176.84
2022-07-27T00:38:34.720Z,96174.38
2022-07-27T00:41:04.337Z,96169.25
2022-07-27T00:43:33.977Z,96164.91
2022-07-27T00:46:04.554Z,96162.34
2022-07-27T00:48:33.713Z,96165.38
2022-07-27T00:51:02.473Z,96168.06
2022-07-27T00:53:31.012Z,96162.81
2022-07-27T00:56:01.834Z,96159.19
2022-07-27T00:58:30.973Z,96160.81
2022-07-27T01:01:00.026Z,96159.19
2022-07-27T01:03:29.451Z,96160.00
2022-07-27T01:06:01.919Z,96169.69
2022-07-27T01:08:31.083Z,96165.03
2022-07-27T01:11:02.186Z,96161.06
2022-07-27T01:13:31.147Z,96162.25
2022-07-27T01:16:00.419Z,96164.13
2022-07-27T01:18:31.993Z,96161.91
2022-07-27T01:21:02.758Z,96155.59
2022-07-27T01:23:33.572Z,96149.19
2022-07-27T01:26:03.065Z,96146.38
2022-07-27T01:28:31.578Z,96145.19
2022-07-27T01:31:00.085Z,96134.69
2022-07-27T01:33:28.610Z,96141.13
2022-07-27T01:35:58.231Z,96140.41
2022-07-27T01:38:26.972Z,96144.03
2022-07-27T01:40:57.463Z,96134.81
2022-07-27T01:43:25.980Z,96130.25
2022-07-27T01:45:54.674Z,96131.38
2022-07-27T01:48:23.713Z,96122.50
2022-07-27T01:50:52.240Z,96125.16
2022-07-27T01:53:22.059Z,96121.75
2022-07-27T01:55:51.283Z,96125.25
2022-07-27T01:58:21.340Z,96122.78
2022-07-27T02:00:50.763Z,96133.53
2022-07-27T02:03:19.475Z,96133.69
2022-07-27T02:05:48.076Z,96131.16
2022-07-27T02:08:16.621Z,96136.16
2022-07-27T02:10:59.006Z,96134.75
2022-07-27T02:13:29.458Z,96127.75
2022-07-27T02:15:58.072Z,96132.06
2022-07-27T02:18:33.021Z,96132.16
2022-07-27T02:21:05.965Z,96121.44
2022-07-27T02:23:34.970Z,96132.97
2022-07-27T02:26:03.465Z,96131.50
2022-07-27T02:28:33.452Z,96132.41
2022-07-27T02:31:02.342Z,96128.28
2022-07-27T02:33:31.098Z,96136.78
2022-07-27T02:35:59.592Z,96134.34
2022-07-27T02:38:28.068Z,96142.88
2022-07-27T02:40:56.591Z,96140.78
2022-07-27T02:43:25.100Z,96143.22
2022-07-27T02:45:54.981Z,96135.84
2022-07-27T02:48:23.529Z,96140.28
2022-07-27T02:50:52.030Z,96140.53
2022-07-27T02:53:20.829Z,96137.78
2022-07-27T02:55:49.227Z,96135.78
2022-07-27T02:58:17.731Z,96143.25
2022-07-27T03:00:46.246Z,96144.19
2022-07-27T03:03:16.138Z,96144.28
2022-07-27T03:05:44.746Z,96141.84
2022-07-27T03:08:13.567Z,96129.34
2022-07-27T03:10:42.340Z,96128.69
2022-07-27T03:13:17.415Z,96130.78
2022-07-27T03:15:45.879Z,96136.47
2022-07-27T03:18:15.811Z,96128.88
2022-07-27T03:20:44.367Z,96130.53
2022-07-27T03:23:12.948Z,96128.28
2022-07-27T03:25:41.819Z,96121.63
2022-07-27T03:28:10.727Z,96115.56
2022-07-27T03:30:41.310Z,96121.50
2022-07-27T03:33:10.004Z,96118.53
2022-07-27T03:35:40.136Z,96121.91
2022-07-27T03:38:08.662Z,96120.72
2022-07-27T03:40:40.906Z,96120.38
2022-07-27T03:43:09.411Z,96119.91
2022-07-27T03:45:38.143Z,96107.34
2022-07-27T03:48:07.238Z,96112.81
2022-07-27T03:50:35.937Z,96110.78
2022-07-27T03:53:05.979Z,96117.91
2022-07-27T03:55:34.618Z,96118.19
2022-07-27T03:58:03.127Z,96121.22
2022-07-27T04:00:31.693Z,96116.00
2022-07-27T04:03:00.244Z,96118.72
2022-07-27T04:05:29.392Z,96108.00
2022-07-27T04:07:59.473Z,96117.44
2022-07-27T04:10:31.807Z,96122.13
2022-07-27T04:13:01.107Z,96120.97
2022-07-27T04:15:31.384Z,96117.00
2022-07-27T04:18:00.146Z,96115.50
2022-07-27T04:20:28.743Z,96119.88
2022-07-27T04:22:57.379Z,96123.34
2022-07-27T04:25:26.038Z,96124.66
2022-07-27T04:27:55.943Z,96123.22
2022-07-27T04:30:24.707Z,96123.72
2022-07-27T04:32:53.758Z,96126.28
2022-07-27T04:35:26.377Z,96117.41
2022-07-27T04:37:58.706Z,96120.81
2022-07-27T04:40:32.932Z,96120.53
2022-07-27T04:43:04.566Z,96119.06
2022-07-27T04:45:33.122Z,96124.16
2022-07-27T04:48:05.920Z,96126.75
2022-07-27T04:50:39.351Z,96127.22
2022-07-27T04:53:07.904Z,96129.66
2022-07-27T04:55:36.494Z,96133.88
2022-07-27T04:58:06.376Z,96133.88
2022-07-27T05:00:34.825Z,96137.72
2022-07-27T05:03:04.083Z,96133.16
2022-07-27T05:05:33.153Z,96133.28
2022-07-27T05:08:01.779Z,96138.28
2022-07-27T05:10:30.304Z,96140.53
2022-07-27T05:12:59.655Z,96141.81
2022-07-27T05:15:54.002Z,96144.25
2022-07-27T05:18:19.618Z,96147.19
2022-07-27T05:20:48.139Z,96146.00
2022-07-27T05:23:18.739Z,96150.56
2022-07-27T05:25:47.300Z,96147.44
2022-07-27T05:28:15.863Z,96156.53
2022-07-27T05:30:45.687Z,96153.03
2022-07-27T05:33:14.192Z,96156.28
2022-07-27T05:35:42.705Z,96158.16
2022-07-27T05:38:11.279Z,96156.06
2022-07-27T05:40:40.756Z,96155.00
2022-07-27T05:43:09.491Z,96151.97
2022-07-27T05:45:38.286Z,96157.91
2022-07-27T05:48:08.304Z,96157.09
2022-07-27T05:50:37.120Z,96157.69
2022-07-27T05:53:06.056Z,96155.31
2022-07-27T05:55:34.672Z,96158.84
2022-07-27T05:58:03.146Z,96158.13
2022-07-27T06:00:31.787Z,96155.91
2022-07-27T06:03:00.275Z,96161.16
2022-07-27T06:05:30.688Z,96161.97
2022-07-27T06:08:03.486Z,96164.78
2022-07-27T06:10:34.550Z,96170.34
2022-07-27T06:13:06.257Z,96172.91
2022-07-27T06:15:35.221Z,96172.09
2022-07-27T06:18:09.024Z,96171.72
2022-07-27T06:20:38.878Z,96163.53
2022-07-27T06:23:09.159Z,96172.19
2022-07-27T06:25:37.918Z,96170.75
2022-07-27T06:28:07.241Z,96166.03
2022-07-27T06:30:35.735Z,96165.22
2022-07-27T06:33:06.262Z,96161.09
2022-07-27T06:35:39.051Z,96158.50
2022-07-27T06:38:09.640Z,96160.81
2022-07-27T06:40:38.312Z,96161.75
2022-07-27T06:43:06.818Z,96165.34
2022-07-27T06:45:35.495Z,96165.75
2022-07-27T06:48:04.060Z,96162.94
2022-07-27T06:50:32.553Z,96162.19
2022-07-27T06:53:01.768Z,96160.72
2022-07-27T06:55:31.683Z,96154.59
2022-07-27T06:58:00.193Z,96153.28
2022-07-27T07:00:28.875Z,96158.09
2022-07-27T07:02:59.605Z,96152.66
2022-07-27T07:05:29.104Z,96149.44
2022-07-27T07:07:58.962Z,96147.41
2022-07-27T07:10:28.945Z,96153.94
2022-07-27T07:13:05.543Z,96144.81
2022-07-27T07:15:35.180Z,96148.41
2022-07-27T07:18:03.936Z,96136.88
2022-07-27T07:20:32.543Z,96139.47
2022-07-27T07:23:01.918Z,96139.47
2022-07-27T07:25:31.219Z,96143.00
2022-07-27T07:28:01.425Z,96142.13
2022-07-27T07:30:30.219Z,96145.38
2022-07-27T07:32:58.946Z,96149.22
2022-07-27T07:35:28.332Z,96138.19
2022-07-27T07:37:57.384Z,96143.31
2022-07-27T07:40:43.237Z,96142.34
2022-07-27T07:43:14.955Z,96139.91
2022-07-27T07:45:50.293Z,96134.97
2022-07-27T07:48:20.994Z,96130.75
2022-07-27T07:50:52.136Z,96133.78
2022-07-27T07:53:22.429Z,96135.78
2022-07-27T07:55:51.343Z,96136.75
2022-07-27T07:58:21.796Z,96134.72
2022-07-27T08:00:50.416Z,96132.41
2022-07-27T08:03:19.714Z,96137.59
2022-07-27T08:05:48.393Z,96137.94
2022-07-27T08:08:17.825Z,96135.72
2022-07-27T08:10:47.865Z,96139.25
2022-07-27T08:13:21.475Z,96138.56
2022-07-27T08:15:53.407Z,96137.00
2022-07-27T08:18:22.314Z,96138.91
2022-07-27T08:20:50.977Z,96134.94
2022-07-27T08:23:19.703Z,96130.16
2022-07-27T08:25:48.611Z,96139.69
2022-07-27T08:28:17.204Z,96140.25
2022-07-27T08:30:46.736Z,96136.28
2022-07-27T08:33:16.934Z,96135.50
2022-07-27T08:35:46.411Z,96139.31
2022-07-27T08:38:14.970Z,96140.16
2022-07-27T08:40:45.786Z,96146.44
2022-07-27T08:43:23.953Z,96148.56
2022-07-27T08:45:55.677Z,96146.44
2022-07-27T08:48:26.852Z,96150.03
2022-07-27T08:50:56.409Z,96152.25
2022-07-27T08:53:25.723Z,96149.09
2022-07-27T08:55:56.816Z,96149.94
2022-07-27T08:58:25.366Z,96151.50
2022-07-27T09:00:54.503Z,96147.44
2022-07-27T09:03:25.531Z,96144.69
2022-07-27T09:05:55.995Z,96144.19
2022-07-27T09:08:25.998Z,96136.13
2022-07-27T09:10:55.844Z,96147.00
2022-07-27T09:13:26.259Z,96145.16
2022-07-27T09:18:46.660Z,96142.84
2022-07-27T09:21:18.157Z,96145.59
2022-07-27T09:23:50.327Z,96139.41
2022-07-27T09:26:31.691Z,96136.69
2022-07-27T09:29:03.643Z,96131.28
2022-07-27T09:31:32.928Z,96142.41
2022-07-27T09:34:03.908Z,96135.31
2022-07-27T09:36:32.849Z,96148.56
2022-07-27T09:39:05.544Z,96147.50
2022-07-27T09:41:41.416Z,96146.41
2022-07-27T09:46:58.875Z,96157.91
2022-07-27T09:49:30.491Z,96148.22
2022-07-27T09:52:02.220Z,96153.66
2022-07-27T09:54:44.267Z,96159.41
2022-07-27T09:57:12.899Z,96154.81
2022-07-27T09:59:41.594Z,96163.22
2022-07-27T10:02:10.236Z,96165.16
2022-07-27T10:04:41.288Z,96165.97
2022-07-27T10:07:13.562Z,96158.69
2022-07-27T10:09:43.352Z,96165.47
2022-07-27T10:12:12.195Z,96159.56
2022-07-27T10:14:40.651Z,96165.00
2022-07-27T10:17:10.893Z,96165.28
2022-07-27T10:19:47.684Z,96163.09
2022-07-27T10:22:16.275Z,96170.69
2022-07-27T10:24:47.672Z,96180.16
2022-07-27T10:27:22.261Z,96170.16
2022-07-27T10:29:52.181Z,96167.19
2022-07-27T10:32:28.804Z,96172.06
2022-07-27T10:34:59.586Z,96176.16
2022-07-27T10:37:29.396Z,96168.56
2022-07-27T10:40:17.913Z,96177.25
2022-07-27T10:42:53.953Z,96174.03
2022-07-27T10:45:23.889Z,96174.59
2022-07-27T10:47:53.484Z,96184.34
2022-07-27T10:50:29.850Z,96177.56
2022-07-27T10:53:02.023Z,96179.72
2022-07-27T10:55:52.679Z,96177.00
2022-07-27T10:58:52.362Z,96172.38
2022-07-27T11:01:22.798Z,96176.44
2022-07-27T11:03:53.684Z,96170.75
2022-07-27T11:06:48.156Z,96172.38
2022-07-27T11:12:13.015Z,96173.44
2022-07-27T11:14:48.818Z,96170.72
2022-07-27T11:20:09.102Z,96159.56
2022-07-27T11:25:29.166Z,96172.50
2022-07-27T11:27:57.641Z,96159.47
2022-07-27T11:30:27.855Z,96158.31
2022-07-27T11:32:57.159Z,96157.72
2022-07-27T11:35:25.778Z,96151.75
2022-07-27T11:38:03.781Z,96147.94
2022-07-27T11:43:37.711Z,96149.59
2022-07-27T11:46:18.130Z,96148.59
2022-07-27T11:49:08.368Z,96148.88
2022-07-27T11:51:42.130Z,96146.72
2022-07-27T11:54:14.752Z,96142.88
2022-07-27T11:56:46.626Z,96150.72
2022-07-27T11:59:17.958Z,96145.53
2022-07-27T12:01:49.880Z,96136.84
2022-07-27T12:04:24.397Z,96141.78
2022-07-27T12:07:02.662Z,96140.91
2022-07-27T12:09:38.372Z,96143.47
2022-07-27T12:12:13.991Z,96140.28
2022-07-27T12:14:44.271Z,96139.75
2022-07-27T12:17:15.970Z,96146.34
2022-07-27T12:19:51.015Z,96149.09
2022-07-27T12:22:24.934Z,96139.84
2022-07-27T12:24:55.784Z,96143.09
2022-07-27T12:27:26.347Z,96150.13
2022-07-27T12:30:03.630Z,96135.91
2022-07-27T12:32:34.298Z,96145.28
2022-07-27T12:35:16.497Z,96139.41
2022-07-27T12:37:45.303Z,96138.13
2022-07-27T12:40:19.210Z,96143.44
2022-07-27T12:42:56.061Z,96141.69
2022-07-27T12:45:24.868Z,96140.03
2022-07-27T12:47:53.413Z,96142.47
2022-07-27T12:50:29.366Z,96141.09
2022-07-27T12:52:58.054Z,96135.97
2022-07-27T12:55:28.163Z,96133.00
2022-07-27T12:57:57.331Z,96138.00
2022-07-27T13:00:33.575Z,96131.75
2022-07-27T13:03:04.281Z,96132.88
2022-07-27T13:05:34.478Z,96141.56
2022-07-27T13:08:04.844Z,96135.88
2022-07-27T13:10:36.491Z,96136.72
2022-07-27T13:13:05.484Z,96143.28
2022-07-27T13:15:34.524Z,96134.59
2022-07-27T13:18:03.485Z,96141.34
2022-07-27T13:20:32.482Z,96136.34
2022-07-27T13:23:01.072Z,96137.16
2022-07-27T13:25:29.714Z,96124.34
2022-07-27T13:27:59.645Z,96130.94
2022-07-27T13:30:28.444Z,96131.97
2022-07-27T13:32:57.339Z,96122.59
2022-07-27T13:35:25.994Z,96126.06
2022-07-27T13:37:54.707Z,96123.81
2022-07-27T13:40:23.720Z,96127.50
2022-07-27T13:42:52.280Z,96125.09
2022-07-27T13:45:22.230Z,96126.59
2022-07-27T13:47:50.945Z,96128.34
2022-07-27T13:50:20.141Z,96124.34
2022-07-27T13:52:49.547Z,96118.28
2022-07-27T13:55:18.905Z,96121.16
2022-07-27T13:57:48.020Z,96123.41
2022-07-27T14:00:17.815Z,96113.50
2022-07-27T14:02:47.886Z,96119.09
2022-07-27T14:05:20.155Z,96116.56
2022-07-27T14:07:48.960Z,96121.06
2022-07-27T14:10:32.760Z,96122.78
2022-07-27T14:13:08.459Z,96123.28
2022-07-27T14:15:53.700Z,96111.03
2022-07-27T14:18:27.335Z,96111.66
2022-07-27T14:20:57.801Z,96106.78
2022-07-27T14:23:27.145Z,96112.84
2022-07-27T14:25:56.632Z,96103.97
2022-07-27T14:28:26.252Z,96108.59
2022-07-27T14:30:55.616Z,96111.44
2022-07-27T14:33:32.022Z,96102.72
2022-07-27T14:36:05.384Z,96109.84
2022-07-27T14:38:33.893Z,96100.22
2022-07-27T14:41:02.415Z,96102.75
2022-07-27T14:43:31.615Z,96103.75
2022-07-27T14:46:01.280Z,96103.97
2022-07-27T14:49:06.488Z,96099.81
2022-07-27T14:51:19.647Z,96101.63
2022-07-27T14:53:48.087Z,96108.31
2022-07-27T14:56:17.119Z,96109.38
2022-07-27T14:58:45.619Z,96112.75
2022-07-27T15:01:16.717Z,96117.31
2022-07-27T15:03:47.281Z,96103.84
2022-07-27T15:06:15.832Z,96105.91
2022-07-27T15:08:44.399Z,96102.44
2022-07-27T15:11:12.968Z,96107.41
2022-07-27T15:13:41.708Z,96103.34
2022-07-27T15:16:11.368Z,96104.34
2022-07-27T15:18:40.039Z,96100.69
2022-07-27T15:21:13.701Z,96093.25
2022-07-27T15:23:44.634Z,96099.34
2022-07-27T15:26:13.646Z,96102.44
2022-07-27T15:28:45.161Z,96099.16
2022-07-27T15:31:13.866Z,96096.47
2022-07-27T15:33:42.806Z,96096.81
2022-07-27T15:36:32.352Z,96095.63
2022-07-27T15:39:01.693Z,96097.63
2022-07-27T15:41:31.100Z,96094.78
2022-07-27T15:44:01.729Z,96089.03
2022-07-27T15:46:32.055Z,96097.56
2022-07-27T15:49:01.178Z,96099.22
2022-07-27T15:51:32.353Z,96096.59
2022-07-27T15:54:00.919Z,96093.97
2022-07-27T15:56:29.412Z,96084.41
2022-07-27T15:58:57.847Z,96082.47
2022-07-27T16:01:35.190Z,96084.16
2022-07-27T16:04:05.406Z,96081.22
2022-07-27T16:06:39.054Z,96085.56
2022-07-27T16:09:09.510Z,96077.91
2022-07-27T16:11:38.510Z,96079.13
2022-07-27T16:14:07.004Z,96077.59
2022-07-27T16:16:35.680Z,96082.38
2022-07-27T16:19:12.906Z,96077.91
2022-07-27T16:21:53.975Z,96074.25
2022-07-27T16:24:25.318Z,96068.00
2022-07-27T16:26:54.470Z,96075.44
2022-07-27T16:29:23.529Z,96068.81
2022-07-27T16:31:54.844Z,96072.78
2022-07-27T16:34:23.457Z,96077.59
2022-07-27T16:36:53.563Z,96073.69
2022-07-27T16:39:22.205Z,96069.25
2022-07-27T16:41:51.667Z,96069.81
2022-07-27T16:44:21.314Z,96069.06
2022-07-27T16:46:50.121Z,96069.84
2022-07-27T16:49:19.124Z,96074.91
2022-07-27T16:51:48.016Z,96073.41
2022-07-27T16:54:18.230Z,96073.28
2022-07-27T16:56:46.771Z,96069.09
2022-07-27T16:59:15.633Z,96077.38
2022-07-27T17:01:44.469Z,96074.78
2022-07-27T17:04:13.056Z,96079.72
2022-07-27T17:06:41.624Z,96070.69
2022-07-27T17:09:10.466Z,96068.72
2022-07-27T17:11:40.576Z,96071.13
2022-07-27T17:14:11.767Z,96073.91
2022-07-27T17:16:40.574Z,96075.34
2022-07-27T17:19:09.089Z,96077.81
2022-07-27T17:21:37.675Z,96080.81
2022-07-27T17:24:07.106Z,96082.44
2022-07-27T17:26:35.921Z,96089.53
2022-07-27T17:29:06.537Z,96091.69
2022-07-27T17:31:35.141Z,96096.38
2022-07-27T17:34:03.899Z,96094.22
2022-07-27T17:36:32.514Z,96099.50
2022-07-27T17:39:02.302Z,96098.44
2022-07-27T17:41:32.092Z,96092.22
2022-07-27T17:44:00.707Z,96086.03
2022-07-27T17:46:33.119Z,96096.97
2022-07-27T17:49:04.108Z,96096.75
2022-07-27T17:51:34.652Z,96092.47
2022-07-27T17:54:03.883Z,96095.47
2022-07-27T17:56:33.156Z,96094.72
2022-07-27T17:59:27.043Z,96097.72
2022-07-27T18:01:51.509Z,96096.66
2022-07-27T18:04:20.136Z,96099.44
2022-07-27T18:06:48.686Z,96097.84
2022-07-27T18:09:17.513Z,96098.13
2022-07-27T18:11:46.138Z,96096.53
2022-07-27T18:14:14.773Z,96102.25
2022-07-27T18:16:43.433Z,96106.09
2022-07-27T18:19:13.616Z,96098.25
2022-07-27T18:21:42.364Z,96109.66
2022-07-27T18:24:10.899Z,96108.84
2022-07-27T18:26:40.122Z,96119.72
2022-07-27T18:29:09.941Z,96124.59
2022-07-27T18:31:39.079Z,96125.97
2022-07-27T18:34:12.617Z,96119.47
2022-07-27T18:36:43.056Z,96113.25
2022-07-27T18:39:11.996Z,96114.63
2022-07-27T18:41:41.332Z,96118.16
2022-07-27T18:44:09.859Z,96119.53
2022-07-27T18:46:38.601Z,96120.63
2022-07-27T18:49:07.958Z,96123.34
2022-07-27T18:51:38.535Z,96120.63
2022-07-27T18:54:08.516Z,96122.50
2022-07-27T18:56:39.526Z,96122.22
2022-07-27T18:59:08.431Z,96130.84
2022-07-27T19:01:37.090Z,96126.47
2022-07-27T19:04:06.415Z,96120.22
2022-07-27T19:06:36.635Z,96123.19
2022-07-27T19:09:06.289Z,96128.88
2022-07-27T19:11:36.175Z,96130.84
2022-07-27T19:14:04.801Z,96139.50
2022-07-27T19:16:34.135Z,96140.78
2022-07-27T19:19:03.003Z,96149.97
2022-07-27T19:21:32.290Z,96150.97
2022-07-27T19:24:00.766Z,96155.75
2022-07-27T19:26:29.322Z,96148.56
2022-07-27T19:28:59.232Z,96155.78
2022-07-27T19:31:28.359Z,96156.56
2022-07-27T19:33:57.185Z,96162.53
2022-07-27T19:36:25.683Z,96171.19
2022-07-27T19:38:54.400Z,96170.41
2022-07-27T19:41:22.964Z,96168.25
2022-07-27T19:43:51.422Z,96174.47
2022-07-27T19:46:21.530Z,96167.69
2022-07-27T19:48:50.065Z,96178.19
2022-07-27T19:51:18.698Z,96182.47
2022-07-27T19:53:47.285Z,96179.75
2022-07-27T19:56:15.797Z,96180.81
2022-07-27T19:58:44.440Z,96182.94
2022-07-27T20:01:14.060Z,96186.63
2022-07-27T20:03:48.670Z,96193.34
2022-07-27T20:06:23.900Z,96196.03
2022-07-27T20:08:55.777Z,96197.81
2022-07-27T20:11:24.634Z,96200.59
2022-07-27T20:13:53.120Z,96204.50
2022-07-27T20:16:21.711Z,96206.06
2022-07-27T20:18:51.545Z,96207.50
2022-07-27T20:21:23.151Z,96208.09
2022-07-27T20:23:52.559Z,96206.28
2022-07-27T20:26:21.120Z,96207.13
2022-07-27T20:28:50.155Z,96205.72
2022-07-27T20:31:19.227Z,96213.56
2022-07-27T20:33:48.071Z,96213.88
2022-07-27T20:36:17.960Z,96220.94
2022-07-27T20:38:46.445Z,96222.38
2022-07-27T20:41:15.041Z,96220.63
2022-07-27T20:43:43.818Z,96214.44
2022-07-27T20:46:15.924Z,96213.38
2022-07-27T20:48:44.648Z,96212.53
2022-07-27T20:51:13.642Z,96212.78
2022-07-27T20:53:44.588Z,96204.13
2022-07-27T20:56:13.136Z,96213.03
2022-07-27T20:58:41.701Z,96215.97
2022-07-27T21:01:10.506Z,96215.16
2022-07-27T21:03:39.205Z,96212.97
2022-07-27T21:06:07.689Z,96220.47
2022-07-27T21:08:42.838Z,96226.56
2022-07-27T21:11:16.176Z,96225.56
2022-07-27T21:13:44.901Z,96222.03
2022-07-27T21:16:13.486Z,96218.25
2022-07-27T21:18:41.935Z,96225.00
2022-07-27T21:21:10.523Z,96223.97
2022-07-27T21:23:56.610Z,96228.59
2022-07-27T21:26:26.391Z,96224.06
2022-07-27T21:28:55.081Z,96224.59
2022-07-27T21:31:24.956Z,96229.91
2022-07-27T21:33:53.630Z,96233.63
2022-07-27T21:36:22.173Z,96241.00
2022-07-27T21:38:51.125Z,96250.09
2022-07-27T21:41:19.645Z,96242.38
2022-07-27T21:43:49.630Z,96238.06
2022-07-27T21:46:18.192Z,96240.00
2022-07-27T21:48:47.782Z,96233.19
2022-07-27T21:51:18.339Z,96236.13
2022-07-27T21:53:47.298Z,96242.75
2022-07-27T21:56:16.617Z,96241.72
2022-07-27T21:58:46.117Z,96238.59
2022-07-27T22:01:17.154Z,96247.81
2022-07-27T22:03:46.207Z,96250.78
2022-07-27T22:06:15.090Z,96254.47
2022-07-27T22:08:43.680Z,96252.97
2022-07-27T22:11:12.163Z,96247.03
2022-07-27T22:13:40.643Z,96244.00
2022-07-27T22:16:12.510Z,96246.91
2022-07-27T22:18:42.723Z,96240.38
2022-07-27T22:21:11.281Z,96244.63
2022-07-27T22:23:41.135Z,96238.03
2022-07-27T22:26:09.725Z,96235.19
2022-07-27T22:28:39.944Z,96226.72
2022-07-27T22:31:22.722Z,96228.94
2022-07-27T22:33:53.422Z,96237.81
2022-07-27T22:36:21.862Z,96230.53
2022-07-27T22:38:50.333Z,96243.47
2022-07-27T22:41:18.841Z,96237.94
2022-07-27T22:43:47.583Z,96234.28
2022-07-27T22:46:16.258Z,96247.00
2022-07-27T22:48:45.687Z,96236.97
2022-07-27T22:51:15.576Z,96232.22
2022-07-27T22:53:44.036Z,96235.91
2022-07-27T22:56:12.524Z,96233.09
2022-07-27T22:58:40.997Z,96232.09
2022-07-27T23:01:45.411Z,96238.03
2022-07-27T23:03:57.993Z,96238.72
2022-07-27T23:06:27.821Z,96227.28
2022-07-27T23:08:56.339Z,96229.13
2022-07-27T23:11:24.863Z,96229.38
2022-07-27T23:13:53.457Z,96229.19
2022-07-27T23:16:21.967Z,96234.13
2022-07-27T23:18:50.539Z,96230.03
2022-07-27T23:21:19.124Z,96227.72
2022-07-27T23:23:54.102Z,96227.63
2022-07-27T23:26:25.778Z,96233.59
2022-07-27T23:28:54.516Z,96232.41
2022-07-27T23:31:23.295Z,96231.78
2022-07-27T23:33:51.747Z,96236.88
2022-07-27T23:36:20.796Z,96233.72
2022-07-27T23:38:50.643Z,96228.78
2022-07-27T23:41:19.366Z,96239.94
2022-07-27T23:43:47.899Z,96231.56
2022-07-27T23:46:16.382Z,96237.72
2022-07-27T23:48:44.914Z,96245.69
2022-07-27T23:51:17.653Z,96243.44
2022-07-27T23:53:46.210Z,96244.16
2022-07-27T23:56:16.082Z,96230.28
2022-07-27T23:58:45.764Z,96230.84
